Time;durP1;ratioP1;P1;durP2;ratioP2;P2;SDS_P1;SDS_P2;PMS_P1;PMS_P2;Temp;Humidity;BMP_temperature;BMP_pressure;BME280_temperature;BME280_humidity;BME280_pressure;Samples;Min_cycle;Max_cycle;Signal;HPM_P1;HPM_P2
2021/10/01 00:02:15;;;;;;;5.40;1.70;;;;;;;9.47;82.94;101754.59;5032924;28;20049;-66
2021/10/01 00:04:43;;;;;;;5.70;1.77;;;;;;;9.51;82.72;101746.53;5040225;28;20163;-65
2021/10/01 00:07:11;;;;;;;7.93;2.22;;;;;;;9.52;82.95;101748.25;5049460;28;20711;-66
2021/10/01 00:09:38;;;;;;;8.82;2.03;;;;;;;9.48;83.23;101745.78;5045856;28;20067;-65
2021/10/01 00:12:09;;;;;;;4.90;1.80;;;;;;;9.43;83.24;101735.44;5032520;28;20127;-65
2021/10/01 00:14:37;;;;;;;5.68;1.65;;;;;;;9.37;83.85;101741.78;5031559;28;20055;-67
2021/10/01 00:17:04;;;;;;;6.78;2.35;;;;;;;9.35;83.52;101740.97;5063064;28;20094;-66
2021/10/01 00:19:34;;;;;;;8.77;1.75;;;;;;;9.35;83.58;101733.06;5067073;28;20059;-65
2021/10/01 00:22:02;;;;;;;4.30;1.70;;;;;;;9.37;83.88;101735.66;5034635;28;20048;-65
2021/10/01 00:24:30;;;;;;;7.15;2.10;;;;;;;9.46;83.70;101734.47;5031604;28;20143;-65
2021/10/01 00:26:57;;;;;;;5.78;2.10;;;;;;;9.54;82.84;101725.38;5047372;28;20086;-67
2021/10/01 00:29:25;;;;;;;5.75;1.58;;;;;;;9.55;82.88;101724.47;5066096;28;20586;-66
2021/10/01 00:31:52;;;;;;;4.93;2.15;;;;;;;9.51;83.84;101722.88;5043164;28;20127;-66
2021/10/01 00:34:19;;;;;;;12.93;2.67;;;;;;;9.46;83.08;101721.34;5057038;28;20158;-66
2021/10/01 00:36:46;;;;;;;6.25;1.95;;;;;;;9.44;83.89;101728.41;5030206;28;20045;-65
2021/10/01 00:39:14;;;;;;;5.35;1.70;;;;;;;9.45;83.49;101712.56;5064216;28;20048;-65
2021/10/01 00:41:41;;;;;;;5.60;1.85;;;;;;;9.44;83.59;101713.50;5066717;28;20076;-65
2021/10/01 00:44:08;;;;;;;4.50;1.60;;;;;;;9.49;83.87;101719.44;5065691;28;20056;-66
2021/10/01 00:46:35;;;;;;;7.10;1.85;;;;;;;9.47;83.41;101720.41;5047223;28;20087;-65
2021/10/01 00:49:03;;;;;;;7.03;2.17;;;;;;;9.33;84.33;101718.28;5067591;28;20056;-64
2021/10/01 00:51:33;;;;;;;6.43;2.22;;;;;;;9.30;85.13;101718.41;5047073;28;20139;-66
2021/10/01 00:54:01;;;;;;;6.38;1.67;;;;;;;9.24;84.26;101716.00;5046805;28;20123;-65
2021/10/01 00:56:28;;;;;;;5.78;1.80;;;;;;;9.09;85.98;101712.97;5029981;28;20135;-65
2021/10/01 00:58:55;;;;;;;5.20;1.95;;;;;;;8.99;86.52;101705.50;5062622;28;20053;-65
2021/10/01 01:01:23;;;;;;;4.72;2.20;;;;;;;9.01;86.51;101708.94;5062887;28;20048;-65
2021/10/01 01:04:00;;;;;;;6.28;2.00;;;;;;;9.00;86.46;101709.81;5066718;28;20089;-65
2021/10/01 01:06:34;;;;;;;8.60;2.30;;;;;;;9.02;86.98;101703.63;5056540;28;20040;-66
2021/10/01 01:09:11;;;;;;;6.88;1.77;;;;;;;8.86;87.40;101705.06;5040150;28;20132;-65
2021/10/01 01:11:59;;;;;;;7.85;2.25;;;;;;;8.83;88.42;101710.44;5055505;28;20037;-67
2021/10/01 01:14:34;;;;;;;6.35;2.00;;;;;;;8.87;88.49;101706.75;5045651;28;20135;-65
2021/10/01 01:17:04;;;;;;;9.90;3.20;;;;;;;8.99;87.33;101697.59;5055042;28;20526;-66
2021/10/01 01:20:07;;;;;;;7.60;1.80;;;;;;;8.80;88.26;101692.16;5057719;28;20080;-66
2021/10/01 01:22:47;;;;;;;4.30;1.80;;;;;;;8.73;88.98;101691.47;5060048;28;20577;-65
2021/10/01 01:25:39;;;;;;;7.75;2.08;;;;;;;8.75;88.47;101704.56;5060288;28;20135;-65
2021/10/01 01:28:25;;;;;;;5.22;2.13;;;;;;;8.71;89.49;101690.69;5062717;28;20550;-64
2021/10/01 01:30:55;;;;;;;7.25;1.85;;;;;;;8.64;90.09;101694.41;5046123;28;20055;-65
2021/10/01 01:33:23;;;;;;;10.73;2.50;;;;;;;8.64;90.15;101699.66;5040590;28;20132;-64
2021/10/01 01:35:53;;;;;;;3.83;1.55;;;;;;;8.63;89.81;101688.31;5051467;28;20087;-63
2021/10/01 01:38:27;;;;;;;4.70;1.98;;;;;;;8.67;90.43;101696.94;5034546;28;20139;-63
2021/10/01 01:40:57;;;;;;;4.38;2.05;;;;;;;8.50;91.21;101694.03;5025587;28;20056;-63
2021/10/01 01:43:25;;;;;;;9.20;2.22;;;;;;;8.54;90.44;101696.50;5046582;28;20067;-64
2021/10/01 01:45:53;;;;;;;6.55;2.20;;;;;;;8.54;91.19;101695.66;5045924;28;20057;-65
2021/10/01 01:48:21;;;;;;;4.13;1.60;;;;;;;8.51;91.04;101696.63;5047015;28;20044;-67
2021/10/01 01:50:48;;;;;;;4.07;2.08;;;;;;;8.58;91.07;101686.75;5048039;28;20053;-65
2021/10/01 01:53:17;;;;;;;5.65;2.00;;;;;;;8.54;90.72;101686.00;5065903;28;20087;-66
2021/10/01 01:55:45;;;;;;;4.03;1.70;;;;;;;8.42;91.52;101691.69;5041326;28;20132;-66
2021/10/01 01:58:14;;;;;;;5.03;2.10;;;;;;;8.46;91.99;101690.66;5049018;28;20065;-66
2021/10/01 02:00:44;;;;;;;6.40;1.70;;;;;;;8.46;91.67;101695.88;5045614;28;20049;-66
2021/10/01 02:03:13;;;;;;;5.03;2.30;;;;;;;8.42;92.46;101693.41;5044766;28;20127;-64
2021/10/01 02:05:40;;;;;;;5.25;1.98;;;;;;;8.30;92.63;101692.03;5016172;28;20052;-65
2021/10/01 02:08:08;;;;;;;4.78;2.33;;;;;;;8.22;93.47;101692.28;5064442;28;20227;-65
2021/10/01 02:10:37;;;;;;;8.70;2.65;;;;;;;8.23;93.33;101693.13;5022119;28;20053;-65
2021/10/01 02:13:07;;;;;;;5.13;2.28;;;;;;;8.22;93.28;101686.19;5051814;28;20709;-66
2021/10/01 02:15:35;;;;;;;5.93;2.33;;;;;;;8.46;93.00;101689.78;5047479;28;20053;-65
2021/10/01 02:18:04;;;;;;;6.40;2.08;;;;;;;8.27;92.96;101679.88;5034916;28;20470;-65
2021/10/01 02:20:33;;;;;;;3.95;1.95;;;;;;;8.16;94.27;101682.00;5042060;28;20052;-65
2021/10/01 02:23:01;;;;;;;4.10;2.33;;;;;;;8.21;93.70;101681.84;5029147;28;20495;-66
2021/10/01 02:28:26;;;;;;;6.45;2.60;;;;;;;8.20;94.14;101681.00;5035740;28;20423;-65
2021/10/01 02:30:54;;;;;;;7.13;2.92;;;;;;;8.13;94.45;101682.09;5061622;28;20066;-65
2021/10/01 02:33:28;;;;;;;8.95;2.20;;;;;;;8.13;94.91;101676.84;5043213;28;21019;-65
2021/10/01 02:35:56;;;;;;;4.70;2.30;;;;;;;8.11;94.35;101674.28;5041584;28;20557;-66
2021/10/01 02:38:23;;;;;;;5.20;2.63;;;;;;;8.21;94.34;101680.06;5036337;28;20960;-65
2021/10/01 02:40:50;;;;;;;6.18;2.38;;;;;;;8.17;94.08;101678.47;5045750;28;20106;-65
2021/10/01 02:43:17;;;;;;;4.40;2.55;;;;;;;8.30;94.04;101671.06;5043162;28;20658;-64
2021/10/01 02:45:44;;;;;;;3.90;2.50;;;;;;;8.36;93.14;101670.84;5047534;28;20401;-65
2021/10/01 02:48:11;;;;;;;9.73;2.78;;;;;;;8.32;92.79;101672.69;5029719;28;20058;-66
2021/10/01 02:50:40;;;;;;;12.40;2.72;;;;;;;8.36;92.37;101671.72;5057337;28;20133;-64
2021/10/01 02:53:17;;;;;;;7.97;3.05;;;;;;;8.24;93.48;101669.50;5047605;28;20600;-66
2021/10/01 02:56:02;;;;;;;5.88;2.80;;;;;;;8.27;92.78;101668.53;5057915;28;20044;-64
2021/10/01 02:58:34;;;;;;;4.15;2.58;;;;;;;8.16;93.14;101670.66;5045997;28;20048;-66
2021/10/01 03:01:02;;;;;;;5.72;2.83;;;;;;;8.15;93.26;101667.16;5045831;28;20048;-65
2021/10/01 03:03:32;;;;;;;4.78;2.40;;;;;;;8.26;93.48;101670.28;5066585;28;20044;-66
2021/10/01 03:06:00;;;;;;;6.78;2.28;;;;;;;8.38;92.70;101665.59;5050316;28;20072;-64
2021/10/01 03:08:29;;;;;;;10.75;2.63;;;;;;;8.33;93.05;101663.06;5040817;28;20081;-65
2021/10/01 03:10:58;;;;;;;6.55;2.38;;;;;;;8.23;93.65;101666.91;5028869;28;20182;-65
2021/10/01 03:13:26;;;;;;;4.43;2.40;;;;;;;8.09;93.89;101657.72;5040569;28;20763;-64
2021/10/01 03:15:56;;;;;;;9.13;3.22;;;;;;;8.09;93.84;101655.09;5048072;28;20156;-66
2021/10/01 03:18:23;;;;;;;6.68;2.63;;;;;;;8.09;94.08;101654.22;5066789;28;20125;-64
2021/10/01 03:20:51;;;;;;;4.97;2.63;;;;;;;8.04;93.82;101656.16;5043862;28;20738;-65
2021/10/01 03:23:20;;;;;;;4.15;2.40;;;;;;;7.99;94.68;101652.81;5053495;28;20041;-64
2021/10/01 03:25:47;;;;;;;6.50;2.22;;;;;;;8.05;93.98;101652.59;5046671;28;20525;-64
2021/10/01 03:28:16;;;;;;;7.57;2.38;;;;;;;8.04;94.14;101646.50;5057249;28;20044;-67
2021/10/01 03:30:47;;;;;;;4.28;2.30;;;;;;;7.98;94.39;101649.34;5052179;28;20143;-64
2021/10/01 03:33:15;;;;;;;4.03;2.33;;;;;;;7.98;95.28;101644.09;5035323;28;20524;-67
2021/10/01 03:35:43;;;;;;;5.90;2.72;;;;;;;7.89;95.42;101647.00;5057427;28;20624;-66
2021/10/01 03:38:11;;;;;;;4.57;2.60;;;;;;;7.98;95.16;101649.34;5019250;28;20136;-66
2021/10/01 03:40:43;;;;;;;6.35;2.88;;;;;;;7.86;95.69;101649.72;5047832;28;20093;-68
2021/10/01 03:43:11;;;;;;;8.98;2.75;;;;;;;7.75;95.91;101646.59;5047371;28;20061;-69
2021/10/01 03:45:38;;;;;;;6.07;2.22;;;;;;;7.77;96.44;101637.75;5060956;28;20139;-68
2021/10/01 03:48:06;;;;;;;6.45;2.55;;;;;;;7.73;96.29;101641.38;5046938;28;20056;-71
2021/10/01 03:50:34;;;;;;;6.88;2.50;;;;;;;7.72;96.05;101642.28;5017482;28;20051;-66
2021/10/01 03:53:01;;;;;;;13.35;3.03;;;;;;;7.73;95.65;101632.66;5046943;28;20063;-68
2021/10/01 03:55:29;;;;;;;5.53;3.13;;;;;;;7.61;96.57;101629.53;5049586;28;20422;-66
2021/10/01 03:57:56;;;;;;;8.43;2.85;;;;;;;7.66;96.11;101629.38;5035046;28;20083;-69
2021/10/01 04:00:24;;;;;;;2.97;2.13;;;;;;;7.64;97.25;101627.69;5033026;28;20044;-66
2021/10/01 04:02:51;;;;;;;5.82;2.55;;;;;;;7.68;96.46;101627.56;5071517;28;20140;-68
2021/10/01 04:05:19;;;;;;;8.07;2.63;;;;;;;7.69;96.52;101626.66;5062528;28;20056;-67
2021/10/01 04:07:46;;;;;;;8.15;2.70;;;;;;;7.53;97.21;101622.78;5053504;28;20071;-69
2021/10/01 04:10:14;;;;;;;9.85;2.95;;;;;;;7.49;97.40;101624.66;5049425;28;20139;-69
2021/10/01 04:12:41;;;;;;;5.40;2.65;;;;;;;7.47;97.04;101618.56;5049290;28;20084;-68
2021/10/01 04:15:08;;;;;;;7.45;2.67;;;;;;;7.48;97.53;101628.19;5052796;28;20053;-69
2021/10/01 04:17:35;;;;;;;10.13;3.47;;;;;;;7.49;97.50;101621.16;5067550;28;20123;-67
2021/10/01 04:20:05;;;;;;;11.13;2.90;;;;;;;7.46;97.42;101627.34;5052254;28;20123;-70
2021/10/01 04:22:32;;;;;;;7.90;2.95;;;;;;;7.44;97.38;101620.47;5042334;28;20048;-68
2021/10/01 04:24:59;;;;;;;7.30;2.88;;;;;;;7.45;97.80;101611.69;5050052;28;20048;-69
2021/10/01 04:27:27;;;;;;;6.40;2.28;;;;;;;7.63;96.86;101610.25;5052568;28;20479;-69
2021/10/01 04:29:54;;;;;;;6.85;2.53;;;;;;;7.47;96.97;101609.84;5059957;28;20052;-67
2021/10/01 04:32:21;;;;;;;9.55;2.65;;;;;;;7.55;96.87;101602.63;5021428;28;20386;-68
2021/10/01 04:35:00;;;;;;;5.32;2.97;;;;;;;7.54;96.57;101606.16;5063297;28;20056;-68
2021/10/01 04:37:27;;;;;;;6.03;2.50;;;;;;;7.46;96.68;101611.63;5038607;28;20063;-68
2021/10/01 04:39:57;;;;;;;4.35;2.70;;;;;;;7.37;97.33;101611.91;5073031;28;20124;-67
2021/10/01 04:42:24;;;;;;;7.60;4.03;;;;;;;7.38;97.54;101611.00;5033054;28;20068;-66
2021/10/01 04:44:52;;;;;;;5.57;2.63;;;;;;;7.49;97.19;101606.31;5065782;28;20040;-67
2021/10/01 04:47:19;;;;;;;8.02;3.38;;;;;;;7.45;97.24;101607.28;5073303;23;20133;-69
2021/10/01 04:49:47;;;;;;;4.60;2.15;;;;;;;7.49;96.59;101600.22;5060260;28;20171;-68
2021/10/01 04:52:14;;;;;;;7.22;2.60;;;;;;;7.45;97.66;101602.06;5055372;28;20071;-66
2021/10/01 04:54:41;;;;;;;7.93;2.45;;;;;;;7.51;97.20;101601.84;5057997;28;20094;-65
2021/10/01 04:57:08;;;;;;;6.65;2.45;;;;;;;7.51;97.35;101599.25;5058389;28;20057;-65
2021/10/01 04:59:36;;;;;;;7.25;3.63;;;;;;;7.55;96.29;101598.25;5059899;28;20057;-67
2021/10/01 05:02:03;;;;;;;6.20;3.20;;;;;;;7.50;96.96;101599.28;5062376;28;20131;-67
2021/10/01 05:04:31;;;;;;;7.93;3.13;;;;;;;7.57;96.59;101600.84;5060665;28;20115;-66
2021/10/01 05:06:58;;;;;;;5.45;2.80;;;;;;;7.59;97.14;101596.38;5058711;28;20545;-66
2021/10/01 05:09:25;;;;;;;8.00;3.15;;;;;;;7.58;96.53;101594.69;5060352;28;20066;-66
2021/10/01 05:11:52;;;;;;;12.02;3.58;;;;;;;7.49;96.72;101593.19;5084150;28;20056;-65
2021/10/01 05:14:20;;;;;;;4.38;2.90;;;;;;;7.59;96.93;101589.38;5060535;28;20044;-66
2021/10/01 05:16:47;;;;;;;7.68;3.25;;;;;;;7.67;96.50;101590.91;5068214;28;20439;-66
2021/10/01 05:19:16;;;;;;;8.43;3.35;;;;;;;7.68;95.90;101595.25;5055847;28;20067;-65
2021/10/01 05:21:43;;;;;;;10.02;3.17;;;;;;;7.72;95.74;101596.88;5063161;28;20083;-66
2021/10/01 05:24:14;;;;;;;7.45;3.35;;;;;;;7.87;94.82;101599.00;5057253;28;20167;-66
2021/10/01 05:26:42;;;;;;;7.97;3.03;;;;;;;7.95;94.08;101601.38;5065940;28;20133;-66
2021/10/01 05:29:09;;;;;;;6.68;3.08;;;;;;;7.93;92.82;101598.81;5064340;28;20048;-65
2021/10/01 05:31:37;;;;;;;10.90;3.08;;;;;;;8.00;93.10;101596.84;5040159;28;20621;-67
2021/10/01 05:34:04;;;;;;;7.50;2.55;;;;;;;8.02;92.55;101601.13;5066062;28;20052;-68
2021/10/01 05:36:33;;;;;;;4.63;2.50;;;;;;;8.12;92.42;101602.53;5036756;28;20467;-66
2021/10/01 05:39:01;;;;;;;9.45;3.22;;;;;;;8.19;91.74;101597.94;5066494;28;20108;-65
2021/10/01 05:41:30;;;;;;;8.75;3.40;;;;;;;8.30;91.32;101594.97;5070466;28;20513;-66
2021/10/01 05:43:58;;;;;;;5.40;2.90;;;;;;;8.34;90.49;101591.34;5066617;28;20570;-66
2021/10/01 05:46:25;;;;;;;9.27;3.17;;;;;;;8.40;90.12;101599.03;5061433;28;20186;-66
2021/10/01 05:48:57;;;;;;;9.02;2.95;;;;;;;8.43;89.90;101598.94;5058508;28;20411;-67
2021/10/01 05:51:24;;;;;;;9.73;3.58;;;;;;;8.50;89.13;101596.94;5059745;28;20130;-66
2021/10/01 05:56:34;;;;;;;4.32;2.80;;;;;;;8.75;88.03;101595.16;5057003;28;20175;-67
2021/10/01 05:59:01;;;;;;;6.07;2.83;;;;;;;8.77;87.12;101602.97;5060836;28;20063;-68
2021/10/01 06:01:28;;;;;;;6.40;3.00;;;;;;;8.88;86.43;101599.06;5066298;28;20119;-68
2021/10/01 06:03:56;;;;;;;6.80;2.92;;;;;;;8.95;85.71;101596.19;5065570;28;20052;-66
2021/10/01 06:06:23;;;;;;;7.85;2.85;;;;;;;8.95;85.23;101599.69;5056064;28;20127;-66
2021/10/01 06:08:50;;;;;;;8.88;2.92;;;;;;;8.99;84.96;101595.19;5061926;28;20052;-66
2021/10/01 06:11:17;;;;;;;10.85;3.25;;;;;;;9.19;84.41;101591.84;5058584;28;20045;-65
2021/10/01 06:13:44;;;;;;;12.43;3.58;;;;;;;9.34;83.21;101599.13;5061616;28;20048;-65
2021/10/01 06:16:12;;;;;;;8.00;2.70;;;;;;;9.57;82.35;101598.22;5060222;28;20074;-65
2021/10/01 06:18:39;;;;;;;7.70;2.60;;;;;;;9.85;81.18;101603.25;5060038;28;20072;-67
2021/10/01 06:21:06;;;;;;;8.55;2.72;;;;;;;10.21;78.44;101595.63;5063222;28;20076;-67
2021/10/01 06:23:34;;;;;;;6.75;2.90;;;;;;;11.42;73.84;101598.19;5058958;28;20086;-66
2021/10/01 06:26:04;;;;;;;6.38;3.08;;;;;;;12.38;68.96;101597.91;5060126;28;20048;-66
2021/10/01 06:28:32;;;;;;;7.80;2.80;;;;;;;12.37;67.73;101598.84;5053093;28;20049;-66
2021/10/01 06:31:02;;;;;;;9.65;3.85;;;;;;;12.71;66.04;101602.41;5056946;28;20052;-66
2021/10/01 06:33:30;;;;;;;7.60;2.90;;;;;;;12.98;65.12;101590.38;5059104;28;20060;-65
2021/10/01 06:35:59;;;;;;;8.73;2.58;;;;;;;13.21;63.93;101588.28;5059029;28;20498;-65
2021/10/01 06:38:29;;;;;;;9.32;2.90;;;;;;;13.17;62.91;101584.94;5053030;28;20160;-66
2021/10/01 06:40:57;;;;;;;9.15;2.90;;;;;;;13.06;63.28;101585.53;5052844;28;20083;-66
2021/10/01 06:43:26;;;;;;;7.15;2.47;;;;;;;12.88;64.13;101586.53;5055991;28;20085;-66
2021/10/01 06:45:55;;;;;;;7.63;2.50;;;;;;;12.80;64.58;101583.41;5059012;28;20601;-70
2021/10/01 07:34:28;;;;;;;7.07;1.83;;;;;;;15.42;53.66;101577.78;5057512;28;20091;-70
2021/10/01 07:35:26;;;;;;;4.13;2.00;;;;;;;17.07;48.66;101573.81;5061966;28;20526;-67
2021/10/01 08:19:14;;;;;;;4.95;1.88;;;;;;;21.52;38.46;101568.28;5059206;28;20048;-66
2021/10/01 08:21:41;;;;;;;4.90;1.45;;;;;;;22.22;36.21;101554.63;5060716;28;20135;-66
2021/10/01 08:24:14;;;;;;;4.07;1.77;;;;;;;22.11;36.85;101562.81;5057355;28;20053;-66
2021/10/01 08:26:42;;;;;;;3.47;1.48;;;;;;;21.68;37.22;101553.34;5044751;28;20148;-68
2021/10/01 08:29:10;;;;;;;5.10;1.70;;;;;;;22.24;36.09;101555.34;5057372;28;20088;-66
2021/10/01 08:31:40;;;;;;;5.28;1.40;;;;;;;21.54;37.40;101552.94;5066354;28;20127;-66
2021/10/01 08:34:08;;;;;;;4.13;1.23;;;;;;;20.83;38.86;101550.28;5068254;28;20204;-65
2021/10/01 08:36:36;;;;;;;4.88;1.67;;;;;;;21.12;38.20;101553.94;5066548;28;20056;-65
2021/10/01 08:39:05;;;;;;;5.18;1.50;;;;;;;21.22;38.29;101552.13;5065140;28;20495;-65
2021/10/01 08:41:33;;;;;;;5.75;1.48;;;;;;;20.53;39.60;101556.47;5061874;28;20052;-65
2021/10/01 08:44:04;;;;;;;7.57;1.42;;;;;;;20.40;39.69;101554.00;5063614;28;20513;-65
2021/10/01 08:46:32;;;;;;;8.32;1.85;;;;;;;20.35;40.47;101549.00;5069231;28;20562;-66
2021/10/01 08:49:01;;;;;;;6.07;1.30;;;;;;;19.88;41.04;101553.88;5060355;28;20114;-66
2021/10/01 08:51:35;;;;;;;5.63;2.17;;;;;;;19.64;41.71;101554.13;5062582;28;20501;-67
2021/10/01 08:54:03;;;;;;;5.18;1.55;;;;;;;18.31;44.58;101547.81;5057994;28;20048;-65
2021/10/01 08:56:31;;;;;;;8.25;2.90;;;;;;;17.72;46.62;101548.66;5059745;28;20045;-67
2021/10/01 08:58:59;;;;;;;3.65;1.38;;;;;;;17.94;46.04;101539.94;5056528;28;20453;-69
2021/10/01 09:01:26;;;;;;;6.70;1.88;;;;;;;17.32;47.32;101540.94;5063124;28;20485;-65
2021/10/01 09:03:55;;;;;;;4.68;1.27;;;;;;;17.11;47.95;101538.03;5064158;28;20055;-68
2021/10/01 09:06:22;;;;;;;9.13;1.30;;;;;;;17.09;48.48;101533.78;5059586;28;20068;-67
2021/10/01 09:08:57;;;;;;;5.65;1.67;;;;;;;17.12;48.39;101531.75;5056763;28;20391;-70
2021/10/01 09:11:30;;;;;;;4.70;1.48;;;;;;;16.69;49.14;101532.09;5066610;28;20052;-66
2021/10/01 09:14:02;;;;;;;7.97;1.40;;;;;;;16.81;49.60;101529.56;5054034;28;20127;-68
2021/10/01 09:16:29;;;;;;;4.38;1.50;;;;;;;17.03;49.54;101528.91;5063551;28;20041;-69
2021/10/01 09:18:57;;;;;;;4.60;1.15;;;;;;;17.15;48.46;101528.84;5056303;28;20060;-70
2021/10/01 09:21:26;;;;;;;3.17;1.30;;;;;;;17.11;48.79;101527.41;5067743;28;20510;-68
2021/10/01 09:23:54;;;;;;;3.65;1.33;;;;;;;17.46;48.32;101526.63;5062004;28;20056;-67
2021/10/01 09:26:22;;;;;;;3.95;1.63;;;;;;;17.55;48.04;101525.94;5060504;28;20049;-67
2021/10/01 09:28:53;;;;;;;4.30;1.38;;;;;;;17.48;47.81;101518.53;5064149;28;20621;-69
2021/10/01 09:31:39;;;;;;;6.95;1.35;;;;;;;17.20;48.31;101520.53;5061313;28;20118;-67
2021/10/01 09:34:13;;;;;;;3.90;1.52;;;;;;;17.25;48.76;101515.75;5063704;28;20106;-65
2021/10/01 09:36:43;;;;;;;2.70;1.08;;;;;;;17.57;48.30;101508.06;5060828;28;20598;-69
2021/10/01 09:39:25;;;;;;;5.90;1.50;;;;;;;17.46;47.99;101506.16;5057110;28;20064;-69
2021/10/01 09:41:53;;;;;;;4.30;1.42;;;;;;;17.53;48.30;101503.06;5063828;28;20762;-68
2021/10/01 09:44:21;;;;;;;2.55;1.00;;;;;;;17.50;48.13;101492.63;5058251;28;20565;-68
2021/10/01 09:46:50;;;;;;;3.80;1.30;;;;;;;17.19;48.76;101489.56;5057223;28;20063;-68
2021/10/01 09:49:29;;;;;;;4.05;1.10;;;;;;;16.67;50.36;101491.47;5053679;28;20114;-68
2021/10/01 09:51:57;;;;;;;6.78;1.50;;;;;;;16.92;50.07;101482.63;5064432;28;20086;-67
2021/10/01 09:54:26;;;;;;;6.47;1.20;;;;;;;17.32;49.09;101482.38;5055057;28;20049;-68
2021/10/01 09:57:00;;;;;;;6.30;1.42;;;;;;;17.21;48.85;101485.00;5064685;28;20566;-70
2021/10/01 09:59:27;;;;;;;4.35;1.17;;;;;;;16.89;50.14;101474.88;5057494;28;20095;-68
2021/10/01 10:02:03;;;;;;;5.60;1.38;;;;;;;16.95;49.58;101473.59;5061421;28;20522;-67
2021/10/01 10:04:33;;;;;;;3.70;1.30;;;;;;;16.84;50.56;101469.06;5059271;28;20135;-69
2021/10/01 10:07:27;;;;;;;4.03;1.08;;;;;;;17.07;50.49;101469.19;5066093;28;20071;-67
2021/10/01 10:09:55;;;;;;;2.72;1.10;;;;;;;17.17;49.77;101465.75;5052568;28;20080;-68
2021/10/01 10:12:25;;;;;;;3.05;1.17;;;;;;;17.15;49.92;101458.81;5063168;28;20429;-70
2021/10/01 10:14:54;;;;;;;5.22;1.40;;;;;;;16.99;50.08;101455.59;5059398;28;20060;-69
2021/10/01 10:17:23;;;;;;;4.03;1.10;;;;;;;17.21;50.21;101464.56;5083324;28;20578;-67
2021/10/01 10:19:54;;;;;;;9.77;1.65;;;;;;;17.21;50.10;101455.72;5059294;28;20119;-69
2021/10/01 10:22:24;;;;;;;5.38;1.20;;;;;;;17.04;50.25;101456.13;5053297;28;20068;-67
2021/10/01 10:24:52;;;;;;;8.73;1.55;;;;;;;17.05;50.02;101449.81;5056453;28;20076;-69
2021/10/01 10:27:22;;;;;;;7.20;1.70;;;;;;;17.20;50.04;101452.22;5063331;28;20059;-68
2021/10/01 10:29:51;;;;;;;4.97;1.73;;;;;;;16.93;49.71;101448.88;5054146;28;20565;-67
2021/10/01 10:32:23;;;;;;;3.38;1.25;;;;;;;16.90;49.77;101454.44;5063900;28;20683;-68
2021/10/01 10:34:55;;;;;;;5.90;1.33;;;;;;;16.89;49.77;101452.75;5057724;28;20101;-67
2021/10/01 10:37:42;;;;;;;4.20;1.08;;;;;;;16.70;50.34;101447.84;5057035;28;20075;-69
2021/10/01 10:40:15;;;;;;;5.32;1.30;;;;;;;16.68;50.23;101441.81;5053153;28;20067;-67
2021/10/01 10:42:44;;;;;;;5.70;1.65;;;;;;;16.55;50.62;101441.00;5057796;28;20094;-66
2021/10/01 10:45:22;;;;;;;2.97;1.20;;;;;;;16.53;50.56;101437.59;5061969;28;20083;-68
2021/10/01 10:47:51;;;;;;;7.20;1.70;;;;;;;16.51;51.46;101436.84;5065132;28;20123;-67
2021/10/01 10:50:22;;;;;;;2.47;1.50;;;;;;;16.56;50.64;101432.06;5055087;28;20499;-67
2021/10/01 10:53:04;;;;;;;3.20;1.35;;;;;;;16.62;50.16;101434.28;5059946;28;20573;-69
2021/10/01 10:55:33;;;;;;;3.33;1.20;;;;;;;16.70;50.50;101427.44;5056615;28;20052;-68
2021/10/01 10:58:22;;;;;;;3.10;0.80;;;;;;;16.94;49.51;101426.69;5059835;28;20406;-67
2021/10/01 11:00:56;;;;;;;5.07;1.20;;;;;;;16.83;49.44;101422.13;5059100;28;20044;-70
2021/10/01 11:03:29;;;;;;;1.60;0.90;;;;;;;16.86;49.22;101419.25;5077451;28;20126;-68
2021/10/01 11:06:13;;;;;;;5.63;1.35;;;;;;;16.69;50.13;101409.78;5058899;28;20136;-68
2021/10/01 11:09:08;;;;;;;2.20;1.15;;;;;;;16.83;50.33;101413.28;5059995;28;20505;-67
2021/10/01 11:11:40;;;;;;;2.60;1.10;;;;;;;16.87;49.98;101418.28;5060415;28;20135;-68
2021/10/01 11:14:19;;;;;;;6.93;1.30;;;;;;;16.89;49.67;101410.22;5054674;28;20053;-67
2021/10/01 11:16:52;;;;;;;6.45;1.30;;;;;;;16.99;48.83;101408.56;5056693;28;20047;-67
2021/10/01 11:19:36;;;;;;;3.78;1.40;;;;;;;17.17;49.18;101409.03;5053133;28;20053;-67
2021/10/01 11:22:36;;;;;;;6.47;2.20;;;;;;;17.22;48.51;101406.88;5060713;28;20052;-68
2021/10/01 11:25:17;;;;;;;3.00;1.05;;;;;;;17.23;48.32;101400.56;5059894;28;20522;-68
2021/10/01 11:27:55;;;;;;;9.25;1.25;;;;;;;17.17;47.90;101395.72;5064418;28;20230;-67
2021/10/01 11:30:23;;;;;;;4.03;1.02;;;;;;;17.13;48.08;101394.25;5058273;28;20063;-71
2021/10/01 11:32:51;;;;;;;6.15;0.95;;;;;;;17.22;48.32;101382.91;5059137;28;20058;-70
2021/10/01 11:35:20;;;;;;;2.40;1.00;;;;;;;17.15;48.70;101374.53;5059197;28;20521;-69
2021/10/01 11:37:50;;;;;;;4.28;1.05;;;;;;;17.22;47.55;101385.56;5063866;28;20044;-69
2021/10/01 11:40:27;;;;;;;3.78;0.93;;;;;;;17.14;46.27;101372.84;5062224;28;20055;-68
2021/10/01 11:42:57;;;;;;;3.85;1.48;;;;;;;17.41;45.71;101374.38;5061504;28;20077;-69
2021/10/01 11:45:25;;;;;;;1.95;0.90;;;;;;;17.59;45.98;101367.66;5056659;28;20132;-69
2021/10/01 11:47:58;;;;;;;3.67;1.02;;;;;;;17.69;46.23;101363.31;5054510;28;20052;-68
2021/10/01 11:50:34;;;;;;;8.23;1.85;;;;;;;17.79;45.06;101365.34;5060535;28;20585;-69
2021/10/01 11:53:04;;;;;;;3.42;0.98;;;;;;;17.85;45.95;101360.38;5062817;28;20387;-68
2021/10/01 11:55:34;;;;;;;2.95;0.90;;;;;;;17.75;46.52;101354.06;5066675;28;20073;-68
2021/10/01 11:58:11;;;;;;;3.90;1.15;;;;;;;17.89;45.43;101360.97;5067638;28;20067;-70
2021/10/01 12:00:38;;;;;;;4.03;0.75;;;;;;;17.86;45.66;101353.22;5067046;28;20065;-68
2021/10/01 12:03:11;;;;;;;4.22;1.00;;;;;;;17.80;45.75;101351.03;5064159;28;20531;-68
2021/10/01 12:05:40;;;;;;;3.08;1.05;;;;;;;17.81;45.46;101347.41;5055225;28;20044;-68
2021/10/01 12:08:10;;;;;;;2.42;1.23;;;;;;;17.84;46.19;101345.34;5064609;28;20052;-69
2021/10/01 12:10:42;;;;;;;4.38;1.50;;;;;;;18.07;45.28;101343.53;5057360;28;20155;-71
2021/10/01 12:13:32;;;;;;;5.55;1.17;;;;;;;18.05;44.25;101334.81;5050125;28;20118;-69
2021/10/01 12:16:05;;;;;;;2.90;1.17;;;;;;;17.78;45.40;101336.97;5066825;28;20123;-66
2021/10/01 12:18:41;;;;;;;1.77;0.90;;;;;;;17.92;44.58;101344.72;5063405;28;20486;-67
2021/10/01 12:21:21;;;;;;;3.38;1.00;;;;;;;17.97;43.83;101326.59;5057338;28;20085;-67
2021/10/01 12:23:52;;;;;;;3.65;1.40;;;;;;;17.70;43.94;101322.44;5089544;28;20528;-66
2021/10/01 12:26:31;;;;;;;3.22;1.10;;;;;;;17.72;44.64;101324.97;5067292;28;20074;-68
2021/10/01 12:29:23;;;;;;;1.65;0.80;;;;;;;17.81;43.61;101315.44;5054737;28;20044;-67
2021/10/01 12:31:56;;;;;;;7.35;1.05;;;;;;;17.83;42.56;101306.38;5061416;28;20127;-67
2021/10/01 12:34:28;;;;;;;5.28;1.35;;;;;;;17.73;42.83;101302.69;5054969;28;20036;-68
2021/10/01 12:37:07;;;;;;;1.77;0.98;;;;;;;17.78;43.11;101308.53;5068955;28;20552;-70
2021/10/01 12:39:36;;;;;;;3.65;1.08;;;;;;;17.83;43.05;101300.19;5062161;28;20131;-69
2021/10/01 12:42:07;;;;;;;5.40;0.93;;;;;;;17.73;42.55;101297.34;5073924;28;20701;-70
2021/10/01 12:44:38;;;;;;;3.33;0.88;;;;;;;17.70;42.13;101293.13;5061789;28;20060;-69
2021/10/01 12:47:20;;;;;;;2.78;0.65;;;;;;;17.68;43.14;101278.25;5059466;28;20167;-70
2021/10/01 12:50:00;;;;;;;2.72;1.00;;;;;;;17.67;43.45;101273.88;5062225;28;20054;-68
2021/10/01 12:52:29;;;;;;;5.00;1.02;;;;;;;17.79;42.77;101275.63;5063805;28;20060;-68
2021/10/01 12:55:16;;;;;;;1.75;0.77;;;;;;;17.84;42.50;101273.44;5060514;28;20049;-69
2021/10/01 12:57:47;;;;;;;3.25;1.25;;;;;;;17.74;42.46;101267.13;5058920;28;20136;-70
2021/10/01 13:00:19;;;;;;;3.85;0.98;;;;;;;17.71;42.71;101267.34;5050514;28;20056;-67
2021/10/01 13:03:01;;;;;;;4.82;0.93;;;;;;;17.65;42.69;101255.38;5054830;28;20045;-68
2021/10/01 13:05:34;;;;;;;2.50;1.00;;;;;;;17.37;43.35;101261.13;5050980;28;20044;-69
2021/10/01 13:08:02;;;;;;;3.58;1.05;;;;;;;17.49;42.66;101260.19;5055159;28;20076;-67
2021/10/01 13:10:59;;;;;;;4.68;0.65;;;;;;;17.52;43.02;101251.97;5057907;28;20052;-69
2021/10/01 13:13:29;;;;;;;5.75;1.10;;;;;;;17.52;43.34;101257.31;5053411;28;20735;-68
2021/10/01 13:15:58;;;;;;;2.83;0.90;;;;;;;17.55;43.14;101254.38;5055988;28;20049;-68
2021/10/01 13:18:34;;;;;;;5.43;1.00;;;;;;;17.54;44.05;101252.69;5061495;28;20089;-69